createdAt,value
2019-02-20T00:02:21.281Z,24.20
2019-02-20T00:05:11.620Z,24.33
2019-02-20T00:08:02.023Z,24.40
2019-02-20T00:10:52.009Z,24.37
2019-02-20T00:13:42.451Z,23.77
2019-02-20T00:16:32.765Z,24.17
2019-02-20T00:19:23.107Z,24.30
2019-02-20T00:22:13.476Z,25.87
2019-02-20T00:25:04.365Z,21.57
2019-02-20T00:27:54.744Z,22.10
2019-02-20T00:30:44.980Z,24.90
2019-02-20T00:33:35.245Z,25.43
2019-02-20T00:36:25.671Z,25.57
2019-02-20T00:39:15.942Z,25.30
2019-02-20T00:42:06.037Z,24.90
2019-02-20T00:45:14.191Z,23.07
2019-02-20T00:48:21.049Z,22.53
2019-02-20T00:51:25.576Z,25.33
2019-02-20T00:54:16.351Z,23.67
2019-02-20T00:57:06.371Z,25.00
2019-02-20T00:59:57.966Z,32.50
2019-02-20T01:02:48.029Z,26.23
2019-02-20T01:05:38.265Z,29.20
2019-02-20T01:08:28.617Z,25.43
2019-02-20T01:11:19.379Z,29.13
2019-02-20T01:14:09.779Z,25.30
2019-02-20T01:17:00.353Z,24.60
2019-02-20T01:19:50.639Z,24.17
2019-02-20T01:22:41.945Z,25.40
2019-02-20T01:25:32.189Z,25.87
2019-02-20T01:28:22.348Z,29.53
2019-02-20T01:31:12.793Z,26.87
2019-02-20T01:34:03.327Z,27.13
2019-02-20T01:36:53.355Z,27.73
2019-02-20T01:39:44.311Z,24.63
2019-02-20T01:42:34.391Z,27.43
2019-02-20T01:45:24.807Z,30.77
2019-02-20T01:48:15.238Z,26.47
2019-02-20T01:51:05.547Z,21.43
2019-02-20T01:53:56.808Z,28.90
2019-02-20T01:56:47.173Z,26.00
2019-02-20T01:59:37.695Z,28.57
2019-02-20T02:02:27.957Z,26.63
2019-02-20T02:05:19.167Z,28.77
2019-02-20T02:08:09.540Z,27.13
2019-02-20T02:11:02.447Z,26.07
2019-02-20T02:13:52.591Z,28.57
2019-02-20T02:16:42.958Z,28.33
2019-02-20T02:19:33.894Z,28.23
2019-02-20T02:22:24.107Z,27.47
2019-02-20T02:25:14.620Z,28.93
2019-02-20T02:28:04.849Z,28.10
2019-02-20T02:30:55.236Z,26.53
2019-02-20T02:33:45.437Z,28.67
2019-02-20T02:36:35.956Z,27.63
2019-02-20T02:39:26.384Z,25.93
2019-02-20T02:42:16.581Z,25.10
2019-02-20T02:45:06.999Z,21.20
2019-02-20T02:47:56.973Z,24.23
2019-02-20T02:50:46.989Z,22.20
2019-02-20T02:53:37.140Z,22.63
2019-02-20T02:56:27.269Z,22.67
2019-02-20T02:59:17.376Z,22.73
2019-02-20T03:02:07.645Z,23.13
2019-02-20T03:04:58.233Z,21.80
2019-02-20T03:07:48.793Z,21.80
2019-02-20T03:10:39.056Z,21.00
2019-02-20T03:13:29.012Z,21.00
2019-02-20T03:16:19.440Z,24.07
2019-02-20T03:19:09.697Z,21.70
2019-02-20T03:21:59.969Z,21.47
2019-02-20T03:24:50.302Z,22.60
2019-02-20T03:27:40.612Z,20.43
2019-02-20T03:30:31.665Z,24.07
2019-02-20T03:33:22.001Z,23.80
2019-02-20T03:36:12.683Z,28.57
2019-02-20T03:39:02.885Z,23.93
2019-02-20T03:41:54.812Z,21.53
2019-02-20T03:44:44.946Z,20.87
2019-02-20T03:47:35.155Z,23.23
2019-02-20T03:50:25.549Z,22.60
2019-02-20T03:53:15.843Z,22.27
2019-02-20T03:56:06.294Z,18.83
2019-02-20T03:58:56.571Z,18.53
2019-02-20T04:01:46.823Z,15.83
2019-02-20T04:04:37.150Z,14.50
2019-02-20T04:07:27.666Z,14.77
2019-02-20T04:10:17.931Z,15.77
2019-02-20T04:13:08.161Z,14.33
2019-02-20T04:15:58.102Z,17.57
2019-02-20T04:18:48.539Z,18.30
2019-02-20T04:21:38.566Z,20.43
2019-02-20T04:24:29.007Z,19.60
2019-02-20T04:27:19.363Z,16.80
2019-02-20T04:30:09.545Z,14.00
2019-02-20T04:32:59.898Z,13.53
2019-02-20T04:35:50.396Z,16.00
2019-02-20T04:38:40.765Z,14.13
2019-02-20T04:41:31.166Z,15.37
2019-02-20T04:44:21.486Z,15.77
2019-02-20T04:47:11.846Z,14.50
2019-02-20T04:50:02.160Z,17.47
2019-02-20T04:52:53.676Z,18.60
2019-02-20T04:55:43.902Z,20.50
2019-02-20T04:58:34.305Z,16.87
2019-02-20T05:01:24.492Z,15.20
2019-02-20T05:04:14.849Z,20.87
2019-02-20T05:07:05.250Z,20.00
2019-02-20T05:09:55.408Z,24.30
2019-02-20T05:12:45.715Z,25.33
2019-02-20T05:15:35.888Z,21.23
2019-02-20T05:18:26.999Z,24.20
2019-02-20T05:21:17.252Z,24.27
2019-02-20T05:24:07.195Z,26.87
2019-02-20T05:26:57.810Z,27.87
2019-02-20T05:29:47.976Z,26.70
2019-02-20T05:32:38.491Z,27.67
2019-02-20T05:35:29.078Z,30.43
2019-02-20T05:38:19.671Z,28.47
2019-02-20T05:41:10.109Z,27.60
2019-02-20T05:44:00.588Z,24.83
2019-02-20T05:46:50.858Z,27.80
2019-02-20T05:49:41.025Z,22.60
2019-02-20T05:52:31.322Z,25.07
2019-02-20T05:55:21.623Z,20.40
2019-02-20T05:58:12.805Z,21.40
2019-02-20T06:01:03.265Z,19.70
2019-02-20T06:03:53.598Z,18.70
2019-02-20T06:06:44.303Z,22.87
2019-02-20T06:09:35.724Z,18.67
2019-02-20T06:12:26.441Z,18.07
2019-02-20T06:15:16.671Z,15.03
2019-02-20T06:18:07.365Z,15.83
2019-02-20T06:20:57.356Z,16.87
2019-02-20T06:23:47.698Z,17.60
2019-02-20T06:26:37.991Z,15.63
2019-02-20T06:29:28.144Z,15.13
2019-02-20T06:32:18.448Z,15.13
2019-02-20T06:35:08.836Z,17.50
2019-02-20T06:37:59.344Z,15.10
2019-02-20T06:40:49.931Z,19.40
2019-02-20T06:43:40.974Z,24.72
2019-02-20T06:46:31.676Z,21.27
2019-02-20T06:49:22.543Z,15.00
2019-02-20T06:52:13.487Z,15.28
2019-02-20T06:55:04.355Z,16.07
2019-02-20T06:57:55.120Z,16.93
2019-02-20T07:00:45.994Z,14.70
2019-02-20T07:03:37.107Z,13.30
2019-02-20T07:06:41.847Z,16.80
2019-02-20T07:10:08.318Z,12.70
2019-02-20T07:13:36.541Z,15.68
2019-02-20T07:16:57.351Z,13.50
2019-02-20T07:20:24.079Z,13.68
2019-02-20T07:23:40.189Z,14.35
2019-02-20T07:27:24.383Z,14.50
2019-02-20T07:30:15.315Z,13.85
2019-02-20T07:33:08.975Z,13.78
2019-02-20T07:35:59.633Z,12.35
2019-02-20T07:38:50.522Z,12.90
2019-02-20T07:41:41.511Z,13.60
2019-02-20T07:44:32.530Z,14.00
2019-02-20T07:47:23.606Z,12.82
2019-02-20T07:50:18.265Z,17.52
2019-02-20T07:53:09.084Z,12.80
2019-02-20T07:55:59.691Z,13.62
2019-02-20T07:58:50.570Z,14.28
2019-02-20T08:01:41.498Z,12.90
2019-02-20T08:04:32.361Z,14.43
2019-02-20T08:07:22.973Z,12.45
2019-02-20T08:10:14.288Z,12.30
2019-02-20T08:13:04.933Z,13.22
2019-02-20T08:15:55.835Z,15.00
2019-02-20T08:18:46.872Z,14.05
2019-02-20T08:21:37.971Z,12.43
2019-02-20T08:24:28.832Z,13.13
2019-02-20T08:27:20.861Z,13.05
2019-02-20T08:30:14.401Z,13.85
2019-02-20T08:33:05.197Z,15.05
2019-02-20T08:35:56.461Z,16.20
2019-02-20T08:38:47.472Z,15.58
2019-02-20T08:41:38.465Z,13.32
2019-02-20T08:44:29.512Z,13.13
2019-02-20T08:47:19.632Z,13.57
2019-02-20T08:50:11.563Z,13.23
2019-02-20T08:53:01.636Z,13.83
2019-02-20T08:55:52.323Z,14.30
2019-02-20T08:58:42.450Z,15.23
2019-02-20T09:01:34.117Z,15.47
2019-02-20T09:04:24.343Z,15.00
2019-02-20T09:07:14.719Z,16.43
2019-02-20T09:10:05.445Z,16.47
2019-02-20T09:12:55.597Z,16.53
2019-02-20T09:15:45.759Z,17.27
2019-02-20T09:18:35.866Z,17.80
2019-02-20T09:21:26.125Z,18.33
2019-02-20T09:24:16.447Z,15.33
2019-02-20T09:27:06.619Z,17.80
2019-02-20T09:29:57.128Z,16.00
2019-02-20T09:32:47.332Z,16.30
2019-02-20T09:35:37.802Z,17.53
2019-02-20T09:38:28.086Z,17.70
2019-02-20T09:41:18.640Z,18.10
2019-02-20T09:44:08.923Z,18.90
2019-02-20T09:46:59.408Z,18.53
2019-02-20T09:49:49.633Z,18.80
2019-02-20T09:52:39.655Z,21.07
2019-02-20T09:55:29.776Z,21.17
2019-02-20T09:58:20.155Z,19.37
2019-02-20T10:01:11.156Z,21.17
2019-02-20T10:04:01.781Z,23.10
2019-02-20T10:06:52.100Z,20.30
2019-02-20T10:09:42.781Z,18.90
2019-02-20T10:12:34.219Z,21.37
2019-02-20T10:15:24.867Z,19.90
2019-02-20T10:18:15.210Z,21.23
2019-02-20T10:21:05.442Z,21.53
2019-02-20T10:23:55.806Z,21.83
2019-02-20T10:26:46.776Z,20.90
2019-02-20T10:29:37.098Z,20.10
2019-02-20T10:32:27.397Z,20.00
2019-02-20T10:35:17.699Z,20.53
2019-02-20T10:38:08.002Z,18.47
2019-02-20T10:40:58.094Z,18.93
2019-02-20T10:43:48.555Z,21.00
2019-02-20T10:46:39.019Z,20.43
2019-02-20T10:49:32.055Z,20.07
2019-02-20T10:52:22.249Z,22.43
2019-02-20T10:55:12.960Z,22.90
2019-02-20T10:58:03.143Z,20.60
2019-02-20T11:00:53.458Z,20.60
2019-02-20T11:03:43.696Z,26.03
2019-02-20T11:06:35.066Z,20.63
2019-02-20T11:09:25.295Z,21.20
2019-02-20T11:12:15.536Z,21.63
2019-02-20T11:15:05.962Z,23.87
2019-02-20T11:17:58.920Z,22.37
2019-02-20T11:20:49.173Z,23.43
2019-02-20T11:23:39.670Z,25.73
2019-02-20T11:26:31.098Z,22.33
2019-02-20T11:29:21.583Z,21.13
2019-02-20T11:32:11.967Z,20.20
2019-02-20T11:35:02.556Z,26.20
2019-02-20T11:37:52.836Z,21.00
2019-02-20T11:40:43.241Z,20.67
2019-02-20T11:43:33.518Z,21.43
2019-02-20T11:46:23.582Z,22.47
2019-02-20T11:49:13.872Z,20.13
2019-02-20T11:52:05.181Z,21.07
2019-02-20T11:54:57.190Z,21.33
2019-02-20T11:57:47.637Z,21.53
2019-02-20T12:00:38.061Z,19.17
2019-02-20T12:03:28.397Z,23.93
2019-02-20T12:06:18.825Z,21.40
2019-02-20T12:09:09.110Z,20.37
2019-02-20T12:11:59.386Z,24.13
2019-02-20T12:14:50.747Z,21.80
2019-02-20T12:17:41.083Z,21.40
2019-02-20T12:20:31.734Z,23.67
2019-02-20T12:23:22.039Z,22.70
2019-02-20T12:26:12.470Z,22.67
2019-02-20T12:29:02.794Z,22.07
2019-02-20T12:31:53.059Z,20.57
2019-02-20T12:34:43.550Z,23.80
2019-02-20T12:37:33.892Z,27.03
2019-02-20T12:40:24.179Z,21.53
2019-02-20T12:43:14.425Z,23.40
2019-02-20T12:46:04.840Z,23.27
2019-02-20T12:48:57.020Z,21.27
2019-02-20T12:51:47.315Z,21.80
2019-02-20T12:54:37.640Z,20.67
2019-02-20T12:57:27.863Z,20.20
2019-02-20T13:00:19.248Z,20.33
2019-02-20T13:03:09.353Z,22.87
2019-02-20T13:05:59.727Z,24.30
2019-02-20T13:08:50.278Z,21.60
2019-02-20T13:11:40.738Z,25.10
2019-02-20T13:14:30.955Z,22.80
2019-02-20T13:17:21.259Z,24.07
2019-02-20T13:20:11.363Z,24.40
2019-02-20T13:23:02.105Z,25.13
2019-02-20T13:25:52.454Z,22.33
2019-02-20T13:28:42.576Z,24.33
2019-02-20T13:31:32.968Z,22.83
2019-02-20T13:34:23.119Z,21.57
2019-02-20T13:37:13.641Z,23.60
2019-02-20T13:40:03.896Z,21.37
2019-02-20T13:42:54.085Z,23.40
2019-02-20T13:45:44.285Z,22.30
2019-02-20T13:48:35.009Z,24.53
2019-02-20T13:51:26.361Z,24.00
2019-02-20T13:54:16.630Z,22.83
2019-02-20T13:57:07.060Z,21.97
2019-02-20T13:59:57.646Z,21.90
2019-02-20T14:02:47.998Z,21.80
2019-02-20T14:05:38.457Z,19.90
2019-02-20T14:08:28.793Z,22.80
2019-02-20T14:11:19.356Z,23.60
2019-02-20T14:14:09.759Z,20.47
2019-02-20T14:17:00.129Z,19.57
2019-02-20T14:19:50.436Z,21.03
2019-02-20T14:22:40.730Z,22.57
2019-02-20T14:25:31.136Z,21.93
2019-02-20T14:28:21.383Z,27.37
2019-02-20T14:31:11.747Z,24.80
2019-02-20T14:34:02.021Z,24.37
2019-02-20T14:36:53.457Z,24.63
2019-02-20T14:39:43.863Z,24.90
2019-02-20T14:42:36.258Z,24.17
2019-02-20T14:45:27.061Z,20.70
2019-02-20T14:48:17.576Z,26.30
2019-02-20T14:51:07.998Z,26.60
2019-02-20T14:53:58.247Z,27.33
2019-02-20T14:56:48.575Z,27.70
2019-02-20T14:59:39.211Z,27.63
2019-02-20T15:02:30.078Z,26.87
2019-02-20T15:05:20.614Z,24.70
2019-02-20T15:08:11.010Z,24.33
2019-02-20T15:11:01.431Z,27.20
2019-02-20T15:13:54.184Z,26.87
2019-02-20T15:16:43.660Z,24.93
2019-02-20T15:19:34.098Z,24.60
2019-02-20T15:22:25.929Z,23.20
2019-02-20T15:25:16.367Z,23.97
2019-02-20T15:28:06.459Z,26.90
2019-02-20T15:30:57.146Z,26.17
2019-02-20T15:33:47.730Z,22.97
2019-02-20T15:36:38.048Z,23.33
2019-02-20T15:39:28.392Z,26.87
2019-02-20T15:42:18.940Z,23.27
2019-02-20T15:45:09.437Z,22.77
2019-02-20T15:47:59.686Z,26.43
2019-02-20T15:50:50.983Z,22.70
2019-02-20T15:53:41.313Z,22.20
2019-02-20T15:56:31.884Z,23.20
2019-02-20T15:59:21.995Z,23.87
2019-02-20T16:02:12.381Z,25.63
2019-02-20T16:05:02.646Z,22.93
2019-02-20T16:07:53.540Z,23.43
2019-02-20T16:10:43.968Z,21.77
2019-02-20T16:13:34.449Z,21.70
2019-02-20T16:16:24.763Z,24.73
2019-02-20T16:19:15.114Z,22.73
2019-02-20T16:22:05.226Z,22.90
2019-02-20T16:24:55.820Z,21.90
2019-02-20T16:27:47.837Z,21.27
2019-02-20T16:30:38.615Z,22.80
2019-02-20T16:33:29.110Z,19.90
2019-02-20T16:36:22.051Z,20.97
2019-02-20T16:39:12.087Z,21.03
2019-02-20T16:42:02.548Z,20.50
2019-02-20T16:44:52.879Z,21.50
2019-02-20T16:47:42.936Z,24.23
2019-02-20T16:50:33.724Z,24.80
2019-02-20T16:53:23.994Z,23.80
2019-02-20T16:56:14.459Z,28.50
2019-02-20T16:59:05.219Z,25.17
2019-02-20T17:01:55.599Z,24.63
2019-02-20T17:04:45.837Z,27.47
2019-02-20T17:07:36.012Z,25.80
2019-02-20T17:10:26.354Z,25.70
2019-02-20T17:13:16.812Z,25.43
2019-02-20T17:16:07.171Z,25.60
2019-02-20T17:18:57.354Z,27.03
2019-02-20T17:21:47.575Z,28.27
2019-02-20T17:24:37.529Z,27.40
2019-02-20T17:27:30.788Z,26.97
2019-02-20T17:30:20.801Z,26.93
2019-02-20T17:33:11.608Z,25.63
2019-02-20T17:36:01.707Z,25.53
2019-02-20T17:38:52.776Z,24.63
2019-02-20T17:41:43.067Z,24.87
2019-02-20T17:44:33.441Z,25.00
2019-02-20T17:47:23.661Z,32.33
2019-02-20T17:50:15.214Z,28.60
2019-02-20T17:53:05.164Z,34.97
2019-02-20T17:55:55.318Z,29.70
2019-02-20T17:58:45.639Z,27.13
2019-02-20T18:01:36.076Z,27.83
2019-02-20T18:04:26.130Z,28.47
2019-02-20T18:07:17.190Z,25.93
2019-02-20T18:10:10.625Z,29.67
2019-02-20T18:13:02.953Z,36.53
2019-02-20T18:15:53.111Z,75.87
2019-02-20T18:18:43.867Z,43.63
2019-02-20T18:21:34.422Z,34.43
2019-02-20T18:24:26.124Z,40.30
2019-02-20T18:27:16.291Z,32.97
2019-02-20T18:30:06.848Z,28.63
2019-02-20T18:32:57.804Z,35.13
2019-02-20T18:35:49.273Z,52.53
2019-02-20T18:38:39.529Z,34.90
2019-02-20T18:41:30.048Z,35.77
2019-02-20T18:44:20.440Z,34.53
2019-02-20T18:47:11.091Z,43.73
2019-02-20T18:50:01.500Z,37.97
2019-02-20T18:52:55.673Z,52.23
2019-02-20T18:55:46.000Z,92.17
2019-02-20T18:58:36.410Z,52.97
2019-02-20T19:01:26.918Z,35.63
2019-02-20T19:04:17.512Z,30.30
2019-02-20T19:07:12.471Z,29.30
2019-02-20T19:10:02.627Z,24.60
2019-02-20T19:13:28.924Z,25.03
2019-02-20T19:17:18.540Z,20.80
2019-02-20T19:20:55.027Z,17.70
2019-02-20T19:24:21.246Z,13.97
2019-02-20T19:27:33.239Z,13.00
2019-02-20T19:30:47.987Z,11.87
2019-02-20T19:33:57.063Z,12.77
2019-02-20T19:37:10.334Z,14.07
2019-02-20T19:40:43.275Z,13.20
2019-02-20T19:44:01.274Z,13.53
2019-02-20T19:47:24.042Z,11.23
2019-02-20T19:50:46.215Z,13.83
2019-02-20T19:54:33.805Z,17.17
2019-02-20T19:57:48.670Z,12.70
2019-02-20T20:01:20.011Z,15.17
2019-02-20T20:04:23.592Z,12.30
2019-02-20T20:07:55.636Z,15.47
2019-02-20T20:10:58.932Z,14.53
2019-02-20T20:14:33.462Z,13.80
2019-02-20T20:18:20.040Z,14.83
2019-02-20T20:21:38.823Z,19.63
2019-02-20T20:24:54.967Z,19.73
2019-02-20T20:28:35.726Z,19.17
2019-02-20T20:32:07.176Z,17.90
2019-02-20T20:35:40.385Z,18.67
2019-02-20T20:39:19.502Z,17.70
2019-02-20T20:43:04.187Z,29.60
2019-02-20T20:46:31.519Z,22.07
2019-02-20T20:50:04.977Z,19.73
2019-02-20T20:53:40.970Z,14.60
2019-02-20T20:57:00.408Z,15.93
2019-02-20T21:00:29.669Z,14.00
2019-02-20T21:03:19.711Z,13.50
2019-02-20T21:06:41.599Z,24.97
2019-02-20T21:10:18.876Z,16.43
2019-02-20T21:13:34.804Z,21.50
2019-02-20T21:16:36.772Z,17.33
2019-02-20T21:20:08.009Z,14.90
2019-02-20T21:23:25.104Z,13.87
2019-02-20T21:26:44.537Z,14.80
2019-02-20T21:29:52.358Z,14.97
2019-02-20T21:33:34.327Z,13.93
2019-02-20T21:36:36.359Z,13.73
2019-02-20T21:39:41.779Z,14.17
2019-02-20T21:42:58.058Z,15.43
2019-02-20T21:46:33.710Z,16.67
2019-02-20T21:49:42.692Z,15.40
2019-02-20T21:53:09.898Z,20.33
2019-02-20T21:56:23.503Z,21.50
2019-02-20T22:00:00.861Z,21.60
2019-02-20T22:02:59.894Z,22.30
2019-02-20T22:06:25.184Z,22.40
2019-02-20T22:09:39.446Z,21.27
2019-02-20T22:13:06.598Z,21.30
2019-02-20T22:16:11.461Z,23.27
2019-02-20T22:19:53.580Z,18.37
2019-02-20T22:23:20.318Z,16.40
2019-02-20T22:26:46.336Z,19.73
2019-02-20T22:30:13.701Z,18.20
2019-02-20T22:33:32.085Z,20.33
2019-02-20T22:37:30.627Z,20.43
2019-02-20T22:41:02.499Z,21.37
2019-02-20T22:44:58.311Z,18.07
2019-02-20T22:48:23.690Z,20.13
2019-02-20T22:51:32.033Z,17.20
2019-02-20T22:55:06.584Z,16.33
2019-02-20T22:58:20.075Z,18.53
2019-02-20T23:02:00.476Z,17.53
2019-02-20T23:05:30.992Z,17.53
2019-02-20T23:09:00.540Z,19.43
2019-02-20T23:12:30.252Z,17.77
2019-02-20T23:15:20.463Z,19.10
2019-02-20T23:18:10.754Z,16.50
2019-02-20T23:21:01.724Z,18.60
2019-02-20T23:23:52.009Z,19.60
2019-02-20T23:26:42.335Z,17.33
2019-02-20T23:29:32.638Z,20.20
2019-02-20T23:32:22.863Z,19.10
2019-02-20T23:35:12.840Z,21.80
2019-02-20T23:38:02.868Z,22.20
2019-02-20T23:40:53.125Z,22.20
2019-02-20T23:43:43.570Z,21.10
2019-02-20T23:46:34.001Z,21.07
2019-02-20T23:49:24.394Z,25.57
2019-02-20T23:52:14.617Z,22.97
2019-02-20T23:55:06.654Z,23.90
2019-02-20T23:57:59.462Z,28.47
